Jump to content

  •  

SOUTHWEST AIRLINES FLIGHT WN3780 FLOWN ON 11-18-2017 BY CAPTAIN TYLER HANUS

Pilot StatsCaptain Tyler Hanus (LDP525) • 262.7 total hours • 63 total flights [View Logbook]
FLIGHT DETAILS
StatusReceived and approved on 2017-11-18 at 10:11:42
Origin AirportHartsfield - Jackson Atlanta I (KATL) • Atlanta, Georgia, United States (1,026 feet MSL)
Filed Flight PlanFLIGHT PLANNER OFFLINE
Destination AirportWashington Dulles Intl (KIAD) • Washington, Virginia, United States (312 feet MSL)
Alternate AirportNone Filed
AirlineSouthwest Airlines
AircraftBoeing 737-800 | Winglets (73H / B737-800)
FS Aircraft UsedBoeing 737-7H4NG Southwest Airlines N708SW Goldstar Textures
Cruising AltitudeFL390
Distance Flown464 nautical miles
Passengers Onboard119 passengers (73.46% full)
DEPARTURE DETAILS
Time Out08:28:03
Taxi Data127,021 lbs total with 14,756 lbs of fuel onboard
Takeoff Data08:38:44 (11 minutes after leaving gate/ramp) • 126,572 lbs total • 6° pitch at 139 knots
Departure METARKATL 181152Z 11004KT 7SM FEW006 SCT200 08/07 A3002 RMK AO2 SLP165 T00780072 10100 20072 56005
ARRIVAL DETAILS
Landing Data10:04:55 • 117,953 lbs total • 4° pitch doing 115 knots at a rate of -94.58 feet/minute with 5,344 lbs of fuel onboard
Time In10:13:37 (9 minutes after landing)
Ramp Weight117,609 lbs total
Total Fuel Used9,412 lbs
Total Block Time01:43:17 (1.7 hours) while 19 minutes were spent on the ground
Arrival METARKIAD 181452Z 20010G19KT 10SM BKN110 BKN200 08/02 A2983 RMK AO2 SLP104 T00780017 58018
MISCELLANEOUS DETAILS
LiveDISPATCH Version4.8.3.1
FS Version
FSUIPC Version4.97
OS VersionWindows 7 32-bit
Screen Resolution1360 x 768
Pilot's CommentsNo Comments Reported
FLIGHT MAP